Time;durP1;ratioP1;P1;durP2;ratioP2;P2;SDS_P1;SDS_P2;PMS_P1;PMS_P2;Temp;Humidity;BMP_temperature;BMP_pressure;BME280_temperature;BME280_humidity;BME280_pressure;Samples;Min_cycle;Max_cycle;Signal;HPM_P1;HPM_P2
2021/04/02 00:00:27;;;;;;;45.48;21.20;;;;;;;10.46;64.96;98613.50;2217932;80;21292;-71
2021/04/02 00:03:33;;;;;;;45.78;22.25;;;;;;;10.38;65.93;98606.97;2203652;80;21137;-71
2021/04/02 00:06:34;;;;;;;46.37;23.05;;;;;;;10.31;65.38;98604.34;2220847;80;21386;-71
2021/04/02 00:09:37;;;;;;;51.00;23.85;;;;;;;10.26;66.84;98611.67;2191375;80;21287;-71
2021/04/02 00:12:38;;;;;;;47.55;23.38;;;;;;;10.19;66.29;98602.52;2201085;80;21319;-71
2021/04/02 00:15:41;;;;;;;47.73;23.67;;;;;;;10.14;66.84;98608.05;2228985;80;21736;-71
2021/04/02 00:18:42;;;;;;;48.55;23.25;;;;;;;10.10;66.81;98604.38;2198726;80;21288;-71
2021/04/02 00:21:44;;;;;;;49.73;23.98;;;;;;;10.10;67.86;98601.31;2212373;80;21353;-71
2021/04/02 00:24:46;;;;;;;52.35;24.72;;;;;;;10.04;67.94;98595.12;2193942;80;21259;-71
2021/04/02 00:27:48;;;;;;;50.60;24.82;;;;;;;10.01;68.58;98591.39;2200721;80;21300;-71
2021/04/02 00:30:50;;;;;;;49.40;24.02;;;;;;;9.97;67.99;98585.96;2223611;78;21285;-72
2021/04/02 00:33:52;;;;;;;49.38;23.95;;;;;;;9.94;68.22;98585.70;2199835;80;21165;-71
2021/04/02 00:36:55;;;;;;;50.28;24.00;;;;;;;9.90;68.69;98585.52;2185881;80;21377;-72
2021/04/02 00:39:57;;;;;;;46.00;23.77;;;;;;;9.85;69.28;98580.55;2206239;80;21819;-71
2021/04/02 00:42:59;;;;;;;47.17;24.92;;;;;;;9.80;69.01;98576.08;2210615;80;21313;-71
2021/04/02 00:46:01;;;;;;;49.55;24.35;;;;;;;9.85;69.19;98579.23;2200001;80;21303;-72
2021/04/02 00:49:03;;;;;;;52.95;24.95;;;;;;;9.91;68.93;98590.28;2204041;80;21301;-72
2021/04/02 00:52:05;;;;;;;49.58;24.50;;;;;;;10.00;69.24;98591.03;2220175;80;21288;-72
2021/04/02 00:55:08;;;;;;;52.75;25.62;;;;;;;9.93;69.50;98589.70;2202556;80;21760;-71
2021/04/02 00:58:10;;;;;;;48.45;25.10;;;;;;;9.93;71.29;98591.02;2206919;80;21610;-72
2021/04/02 01:01:12;;;;;;;50.45;25.50;;;;;;;9.84;70.35;98590.67;2203793;79;21626;-71
2021/04/02 01:04:14;;;;;;;52.20;24.95;;;;;;;9.79;71.50;98594.50;2217747;80;21301;-72
2021/04/02 01:07:16;;;;;;;47.85;24.55;;;;;;;9.70;71.40;98593.30;2191666;79;21287;-72
2021/04/02 01:10:18;;;;;;;47.73;23.27;;;;;;;9.63;71.50;98593.30;2223180;80;21288;-72
2021/04/02 01:13:20;;;;;;;48.20;24.35;;;;;;;9.52;73.99;98601.34;2212652;79;21292;-71
2021/04/02 01:16:22;;;;;;;47.48;25.15;;;;;;;9.47;73.95;98601.23;2181693;80;21310;-72
2021/04/02 01:19:24;;;;;;;44.90;22.98;;;;;;;9.45;73.85;98601.78;2194669;80;21284;-72
2021/04/02 01:22:26;;;;;;;50.33;24.45;;;;;;;9.38;74.30;98601.77;2217192;80;21755;-72
2021/04/02 01:25:28;;;;;;;39.42;16.93;;;;;;;9.28;74.30;98603.64;2203462;80;21315;-71
2021/04/02 01:28:30;;;;;;;34.98;14.83;;;;;;;9.17;77.95;98606.87;2213220;80;21277;-72
2021/04/02 01:31:32;;;;;;;36.23;15.10;;;;;;;8.79;77.70;98636.55;2198546;80;21285;-72
2021/04/02 01:34:34;;;;;;;33.45;12.33;;;;;;;8.45;78.24;98634.06;2210948;79;21383;-72
2021/04/02 01:37:36;;;;;;;28.00;10.65;;;;;;;8.19;78.59;98644.61;2212950;80;21284;-72
2021/04/02 01:40:38;;;;;;;29.10;9.70;;;;;;;7.95;78.35;98639.76;2211115;79;21732;-72
2021/04/02 01:43:40;;;;;;;26.62;9.13;;;;;;;7.73;78.37;98651.81;2198841;79;21296;-72
2021/04/02 01:46:42;;;;;;;24.80;8.03;;;;;;;7.58;78.80;98647.38;2178453;80;21300;-72
2021/04/02 01:49:44;;;;;;;25.62;7.60;;;;;;;7.37;79.17;98653.22;2204460;79;21674;-72
2021/04/02 01:52:46;;;;;;;22.98;6.70;;;;;;;7.26;80.12;98652.00;2215791;80;21716;-72
2021/04/02 01:55:48;;;;;;;22.07;6.83;;;;;;;7.11;79.87;98657.53;2217303;80;21153;-72
2021/04/02 01:58:50;;;;;;;22.40;6.65;;;;;;;6.93;80.38;98660.57;2209521;80;21296;-72
2021/04/02 02:01:52;;;;;;;20.85;5.78;;;;;;;6.93;80.38;98660.57;2181560;80;21133;-72
2021/04/02 02:04:54;;;;;;;18.82;5.55;;;;;;;6.83;80.60;98649.38;2202544;80;21740;-72
2021/04/02 02:07:58;;;;;;;17.17;5.03;;;;;;;6.73;80.97;98659.39;2198795;80;21315;-72
2021/04/02 02:11:00;;;;;;;18.45;5.25;;;;;;;6.63;80.89;98662.89;2198277;80;21194;-71
2021/04/02 02:14:02;;;;;;;17.30;4.55;;;;;;;6.55;81.11;98658.05;2201553;80;21299;-72
2021/04/02 02:17:04;;;;;;;17.40;5.28;;;;;;;6.50;81.56;98654.81;2220848;78;21741;-73
2021/04/02 02:20:06;;;;;;;18.23;5.00;;;;;;;6.46;81.55;98662.38;2220653;80;21318;-72
2021/04/02 02:23:08;;;;;;;15.80;4.47;;;;;;;6.41;81.43;98660.00;2208295;80;21346;-72
2021/04/02 02:26:10;;;;;;;15.18;4.20;;;;;;;6.40;81.52;98658.30;2206020;80;21373;-72
2021/04/02 02:29:12;;;;;;;13.50;4.05;;;;;;;6.32;81.40;98668.69;2216381;80;21178;-72
2021/04/02 02:32:14;;;;;;;14.05;4.05;;;;;;;6.23;81.25;98659.10;2224260;80;21300;-72
2021/04/02 02:35:16;;;;;;;14.78;4.72;;;;;;;6.18;81.42;98670.64;2211040;80;21292;-72
2021/04/02 02:38:18;;;;;;;11.25;4.00;;;;;;;6.11;81.22;98673.14;2211122;80;21316;-72
2021/04/02 02:41:20;;;;;;;12.93;4.47;;;;;;;6.07;81.13;98690.64;2199208;80;21160;-72
2021/04/02 02:44:22;;;;;;;13.35;4.47;;;;;;;6.01;80.92;98679.21;2205890;80;21359;-73
2021/04/02 02:47:24;;;;;;;14.75;5.00;;;;;;;5.91;82.03;98673.53;2210500;80;21174;-72
2021/04/02 02:50:26;;;;;;;14.47;4.47;;;;;;;5.76;81.16;98690.67;2208958;78;21287;-72
2021/04/02 02:53:28;;;;;;;12.05;3.90;;;;;;;5.57;80.31;98705.37;2208670;80;21159;-72
2021/04/02 02:56:30;;;;;;;14.85;4.37;;;;;;;5.34;80.45;98711.95;2197678;80;21172;-73
2021/04/02 02:59:32;;;;;;;11.95;4.62;;;;;;;5.19;80.47;98713.87;2206849;80;21303;-73
2021/04/02 03:02:34;;;;;;;13.08;4.58;;;;;;;5.05;80.18;98715.72;2209800;80;21117;-73
2021/04/02 03:05:36;;;;;;;13.78;4.70;;;;;;;4.91;80.69;98726.66;2181131;80;21727;-73
2021/04/02 03:08:38;;;;;;;15.75;4.70;;;;;;;4.81;80.96;98743.09;2209413;80;21336;-73
2021/04/02 03:11:40;;;;;;;14.68;4.85;;;;;;;4.74;81.56;98743.36;2196337;80;21372;-72
2021/04/02 03:14:42;;;;;;;14.93;4.42;;;;;;;4.66;80.85;98738.47;2213423;80;21285;-73
2021/04/02 03:17:44;;;;;;;16.52;5.03;;;;;;;4.54;81.33;98744.13;2200382;80;21279;-72
2021/04/02 03:20:46;;;;;;;15.03;4.80;;;;;;;4.44;81.22;98746.20;2203701;80;21724;-72
2021/04/02 03:23:48;;;;;;;12.68;4.15;;;;;;;4.37;81.07;98756.00;2198156;80;21306;-72
2021/04/02 03:26:50;;;;;;;14.93;5.12;;;;;;;4.25;81.39;98762.92;2194293;80;21320;-73
2021/04/02 03:29:52;;;;;;;15.70;5.17;;;;;;;4.13;81.47;98767.66;2185182;80;21289;-72
2021/04/02 03:32:54;;;;;;;17.65;5.40;;;;;;;4.04;81.57;98762.80;2208633;80;21813;-73
2021/04/02 03:35:56;;;;;;;17.85;5.78;;;;;;;3.95;81.63;98771.77;2191545;80;21305;-73
2021/04/02 03:38:58;;;;;;;18.42;5.90;;;;;;;3.91;81.96;98782.31;2201082;79;21376;-73
2021/04/02 03:42:00;;;;;;;19.57;6.92;;;;;;;3.87;82.37;98770.33;2191747;80;21302;-73
2021/04/02 03:45:02;;;;;;;19.20;7.20;;;;;;;3.77;81.88;98788.80;2206043;80;21288;-72
2021/04/02 03:48:04;;;;;;;19.37;6.90;;;;;;;3.72;82.22;98789.42;2204193;80;21175;-73
2021/04/02 03:51:06;;;;;;;19.82;7.20;;;;;;;3.70;82.65;98800.28;2182880;80;21725;-73
2021/04/02 03:54:08;;;;;;;21.52;7.78;;;;;;;3.72;82.34;98812.77;2193296;80;21289;-73
2021/04/02 03:57:12;;;;;;;21.27;7.50;;;;;;;3.76;82.42;98814.80;2197670;80;21321;-73
2021/04/02 04:00:14;;;;;;;22.70;8.93;;;;;;;3.77;82.59;98821.69;2209952;79;21159;-72
2021/04/02 04:03:16;;;;;;;19.73;7.30;;;;;;;3.73;82.47;98814.44;2198034;79;21296;-73
2021/04/02 04:06:18;;;;;;;21.15;7.85;;;;;;;3.74;83.12;98818.73;2207554;79;21834;-73
2021/04/02 04:09:20;;;;;;;21.82;8.45;;;;;;;3.75;82.72;98813.09;2198408;79;21299;-73
2021/04/02 04:12:22;;;;;;;20.02;7.65;;;;;;;3.71;82.60;98816.71;2201569;80;21289;-73
2021/04/02 04:15:24;;;;;;;20.92;7.80;;;;;;;3.72;82.93;98805.41;2206773;80;21383;-73
2021/04/02 04:18:26;;;;;;;19.85;7.40;;;;;;;3.72;82.17;98827.03;2194332;80;21313;-73
2021/04/02 04:21:28;;;;;;;20.90;8.03;;;;;;;3.71;82.60;98829.69;2187343;80;21741;-73
2021/04/02 04:24:30;;;;;;;18.42;6.70;;;;;;;3.71;82.16;98827.92;2199417;80;21151;-73
2021/04/02 04:27:32;;;;;;;20.30;7.12;;;;;;;3.70;81.94;98821.03;2187374;80;21219;-73
2021/04/02 04:30:34;;;;;;;19.75;7.85;;;;;;;3.74;81.52;98836.06;2198851;80;21281;-73
2021/04/02 04:33:36;;;;;;;20.17;7.25;;;;;;;3.75;81.44;98834.72;2195630;79;21731;-73
2021/04/02 04:36:37;;;;;;;18.15;6.25;;;;;;;3.77;81.08;98841.14;2204989;79;21300;-73
2021/04/02 04:39:39;;;;;;;19.75;6.90;;;;;;;3.76;81.45;98846.77;2208591;80;21293;-73
2021/04/02 04:42:41;;;;;;;20.85;7.85;;;;;;;3.76;81.14;98849.36;2204557;80;21292;-73
2021/04/02 04:45:43;;;;;;;19.87;7.15;;;;;;;3.77;82.06;98852.36;2208642;80;21291;-73
2021/04/02 04:48:45;;;;;;;20.32;7.70;;;;;;;3.75;80.71;98859.36;2181439;80;21213;-73
2021/04/02 04:51:47;;;;;;;20.20;7.83;;;;;;;3.77;81.19;98858.01;2212139;80;21741;-73
2021/04/02 04:54:49;;;;;;;21.33;7.05;;;;;;;3.76;80.74;98862.79;2187439;80;21315;-73
2021/04/02 04:57:51;;;;;;;22.25;7.45;;;;;;;3.71;80.53;98873.33;2161980;80;21356;-73
2021/04/02 05:00:53;;;;;;;19.87;7.17;;;;;;;3.77;81.08;98881.36;2192703;80;21278;-72
2021/04/02 05:03:55;;;;;;;18.57;6.90;;;;;;;3.76;80.54;98887.44;2205820;79;21155;-73
2021/04/02 05:06:57;;;;;;;20.08;7.40;;;;;;;3.77;79.77;98886.55;2201059;80;21384;-73
2021/04/02 05:09:59;;;;;;;20.05;7.55;;;;;;;3.76;79.77;98883.55;2196838;80;21173;-73
2021/04/02 05:13:01;;;;;;;20.08;7.30;;;;;;;3.72;79.80;98881.95;2204967;80;21309;-72
2021/04/02 05:16:03;;;;;;;21.33;7.58;;;;;;;3.74;79.00;98882.30;2192594;79;21292;-73
2021/04/02 05:19:06;;;;;;;20.75;7.25;;;;;;;3.76;79.28;98862.33;2196506;80;21336;-72
2021/04/02 05:22:09;;;;;;;19.50;6.90;;;;;;;3.79;79.11;98870.47;2195508;80;21599;-73
2021/04/02 05:25:11;;;;;;;19.48;7.22;;;;;;;3.82;78.76;98861.28;2196162;80;21295;-73
2021/04/02 05:28:13;;;;;;;18.75;6.78;;;;;;;3.81;78.31;98843.58;2209909;80;21309;-73
2021/04/02 05:31:15;;;;;;;20.85;7.83;;;;;;;3.83;77.84;98848.72;2196149;80;21295;-73
2021/04/02 05:34:17;;;;;;;19.05;6.40;;;;;;;3.88;78.42;98849.42;2203994;79;21174;-73
2021/04/02 05:37:19;;;;;;;18.80;6.60;;;;;;;3.89;77.66;98847.67;2177689;80;21277;-73
2021/04/02 05:40:21;;;;;;;19.95;6.45;;;;;;;3.86;77.61;98847.78;2193237;80;21307;-73
2021/04/02 05:43:23;;;;;;;18.30;6.47;;;;;;;3.89;77.90;98850.27;2199353;80;21299;-73
2021/04/02 05:46:25;;;;;;;19.20;6.33;;;;;;;3.90;77.10;98851.50;2174024;80;21293;-73
2021/04/02 05:49:27;;;;;;;19.40;6.37;;;;;;;3.97;77.26;98863.84;2199350;80;21392;-73
2021/04/02 05:52:29;;;;;;;19.23;6.40;;;;;;;4.02;77.46;98888.34;2191541;80;21688;-73
2021/04/02 05:55:32;;;;;;;18.62;5.78;;;;;;;4.04;77.56;98893.02;2196096;80;21713;-73
2021/04/02 05:58:34;;;;;;;17.67;6.03;;;;;;;4.03;77.36;98888.28;2186618;80;21308;-73
2021/04/02 06:01:36;;;;;;;19.52;6.20;;;;;;;4.04;76.97;98889.98;2182443;80;21746;-73
2021/04/02 06:04:38;;;;;;;18.70;7.15;;;;;;;4.02;76.24;98881.84;2199623;80;21163;-72
2021/04/02 06:07:40;;;;;;;15.65;5.37;;;;;;;4.01;75.25;98889.23;2186656;80;21305;-72
2021/04/02 06:10:42;;;;;;;14.05;4.92;;;;;;;3.91;72.50;98878.33;2208989;80;21304;-73
2021/04/02 06:13:44;;;;;;;12.98;4.35;;;;;;;3.87;73.46;98891.00;2194320;80;21711;-73
2021/04/02 06:16:46;;;;;;;9.90;3.17;;;;;;;3.88;73.69;98897.44;2195389;80;21300;-73
2021/04/02 06:19:48;;;;;;;10.35;3.50;;;;;;;3.91;72.77;98898.63;2199555;80;21312;-73
2021/04/02 06:22:50;;;;;;;11.50;3.37;;;;;;;3.97;72.52;98902.77;2192545;80;21575;-73
2021/04/02 06:25:52;;;;;;;16.48;4.25;;;;;;;4.20;72.52;98899.41;2196078;79;21313;-73
2021/04/02 06:28:54;;;;;;;13.98;3.98;;;;;;;4.68;73.36;98902.94;2201398;79;21307;-72
2021/04/02 06:31:56;;;;;;;9.20;2.77;;;;;;;5.02;69.80;98916.02;2191397;79;21301;-72
2021/04/02 06:34:58;;;;;;;10.08;3.22;;;;;;;5.07;68.99;98921.05;2195911;80;21753;-72
2021/04/02 06:38:00;;;;;;;11.03;3.12;;;;;;;5.30;69.55;98925.38;2204906;80;21761;-72
2021/04/02 06:41:02;;;;;;;9.83;3.20;;;;;;;5.81;67.84;98922.97;2207424;80;21614;-72
2021/04/02 06:44:04;;;;;;;5.85;2.50;;;;;;;6.29;68.44;98923.66;2190756;80;21293;-72
2021/04/02 06:47:07;;;;;;;9.33;3.40;;;;;;;6.74;68.35;98932.20;2183212;80;21386;-72
2021/04/02 06:50:09;;;;;;;9.20;3.12;;;;;;;7.06;68.19;98932.53;2212095;80;21297;-72
2021/04/02 06:53:11;;;;;;;11.18;3.22;;;;;;;6.93;67.84;98940.89;2192020;79;21553;-72
2021/04/02 06:56:13;;;;;;;5.92;2.62;;;;;;;6.53;66.81;98942.62;2197792;80;21702;-72
2021/04/02 06:59:15;;;;;;;;;;;;;;;6.27;67.00;98946.80;2189830;80;21742;-72
2021/04/02 07:02:17;;;;;;;5.43;2.50;;;;;;;5.99;66.54;98953.11;2199276;80;20251;-72
2021/04/02 07:05:19;;;;;;;6.70;2.65;;;;;;;5.87;68.31;98949.21;2195170;80;22582;-72
2021/04/02 07:08:22;;;;;;;8.03;2.85;;;;;;;5.85;68.27;98954.48;2203816;79;21731;-72
2021/04/02 07:11:25;;;;;;;7.83;3.00;;;;;;;5.80;69.22;98952.50;2201915;79;21721;-72
2021/04/02 07:14:27;;;;;;;6.67;2.65;;;;;;;5.84;67.49;98949.34;2194162;80;21732;-72
2021/04/02 07:17:29;;;;;;;7.90;2.92;;;;;;;5.75;66.59;98950.98;2194799;80;21626;-72
2021/04/02 07:20:32;;;;;;;;;;;;;;;5.57;66.14;98956.00;2201145;79;21306;-72
2021/04/02 07:23:34;;;;;;;8.40;3.12;;;;;;;5.42;67.17;98952.71;2209872;80;20242;-72
2021/04/02 07:26:36;;;;;;;9.85;3.10;;;;;;;5.37;66.73;98965.86;2204154;79;21304;-72
2021/04/02 07:29:38;;;;;;;7.53;3.00;;;;;;;5.24;65.34;98969.84;2188012;80;21169;-72
2021/04/02 07:32:40;;;;;;;8.48;2.77;;;;;;;5.09;65.49;98962.16;2204540;80;21155;-73
2021/04/02 07:35:42;;;;;;;9.58;3.37;;;;;;;4.88;66.46;98955.50;2176092;80;21724;-72
2021/04/02 07:38:44;;;;;;;18.80;5.83;;;;;;;4.96;67.06;98956.09;2206702;79;21343;-72
2021/04/02 07:41:46;;;;;;;11.40;3.50;;;;;;;5.35;66.45;98953.38;2190279;80;21296;-72
2021/04/02 07:44:50;;;;;;;;;;;;;;;5.85;66.41;98939.33;2202457;80;21816;-72
2021/04/02 07:47:52;;;;;;;9.40;3.30;;;;;;;6.35;64.48;98938.18;2191441;80;20247;-72
2021/04/02 07:50:56;;;;;;;10.90;3.30;;;;;;;6.83;64.83;98940.91;2206403;80;21154;-72
2021/04/02 07:53:58;;;;;;;8.80;3.12;;;;;;;7.39;63.22;98958.02;2200239;79;21724;-72
2021/04/02 07:57:00;;;;;;;8.70;3.05;;;;;;;7.53;60.39;98967.80;2205487;79;21288;-72
2021/04/02 08:00:02;;;;;;;9.83;3.47;;;;;;;7.25;61.62;98959.47;2211241;79;21617;-72
2021/04/02 08:03:04;;;;;;;;;;;;;;;7.77;63.12;98957.97;2212836;80;22082;-71
2021/04/02 08:06:07;;;;;;;10.53;3.30;;;;;;;8.57;61.98;98964.56;2181902;80;20794;-72
2021/04/02 08:09:09;;;;;;;10.75;3.40;;;;;;;8.79;60.87;98981.33;2191773;79;21286;-72
2021/04/02 08:12:11;;;;;;;9.00;3.42;;;;;;;8.47;60.18;98988.17;2192306;80;21731;-72
2021/04/02 08:15:13;;;;;;;10.90;3.60;;;;;;;7.95;63.17;98979.77;2165300;81;21292;-72
2021/04/02 08:18:15;;;;;;;8.25;3.60;;;;;;;7.59;60.08;98988.42;2169731;81;21767;-72
2021/04/02 08:21:18;;;;;;;9.35;3.58;;;;;;;7.56;62.56;98985.48;2146989;81;21727;-72
2021/04/02 08:24:20;;;;;;;10.68;3.67;;;;;;;7.89;60.92;98990.05;2201191;80;21165;-72
2021/04/02 08:27:22;;;;;;;10.60;3.47;;;;;;;7.98;59.70;98988.30;2185427;80;21287;-72
2021/04/02 08:30:24;;;;;;;14.05;3.67;;;;;;;8.52;61.69;98979.65;2191353;80;21293;-71
2021/04/02 08:33:26;;;;;;;10.23;3.22;;;;;;;8.94;58.74;98992.77;2214531;80;21308;-72
2021/04/02 08:36:29;;;;;;;11.15;3.50;;;;;;;8.37;57.46;98998.67;2198096;79;21282;-72
2021/04/02 08:39:30;;;;;;;10.35;3.15;;;;;;;8.25;58.74;98986.58;2203829;80;21296;-72
2021/04/02 08:42:33;;;;;;;9.68;3.17;;;;;;;8.43;56.83;98987.91;2201434;80;21360;-72
2021/04/02 08:45:35;;;;;;;8.55;3.20;;;;;;;8.66;58.15;98985.47;2204573;80;21752;-71
2021/04/02 08:48:37;;;;;;;;;;;;;;;8.79;56.00;98995.72;2205079;80;21702;-72
2021/04/02 08:51:39;;;;;;;12.37;3.60;;;;;;;8.94;58.33;98981.47;2191946;80;20518;-72
2021/04/02 08:54:41;;;;;;;10.43;3.40;;;;;;;9.08;53.22;98990.75;2175381;80;21379;-72
2021/04/02 08:57:43;;;;;;;9.40;3.10;;;;;;;8.90;55.54;98977.31;2172366;80;21309;-72
2021/04/02 09:00:45;;;;;;;9.55;3.27;;;;;;;9.21;54.01;98977.86;2212022;80;21296;-72
2021/04/02 09:03:47;;;;;;;11.53;4.05;;;;;;;9.44;55.03;98963.55;2196068;80;21293;-71
2021/04/02 09:06:49;;;;;;;10.25;3.60;;;;;;;9.72;54.56;98955.47;2194530;80;21150;-72
2021/04/02 09:09:51;;;;;;;10.70;3.50;;;;;;;9.69;54.46;98960.89;2201380;80;21287;-72
2021/04/02 09:12:54;;;;;;;7.90;3.30;;;;;;;9.19;54.08;98965.30;2169108;81;21768;-72
2021/04/02 09:15:56;;;;;;;10.43;3.50;;;;;;;8.89;56.06;98958.13;2162904;81;21788;-72
2021/04/02 09:18:58;;;;;;;13.53;3.80;;;;;;;9.01;54.35;98972.37;2168023;81;21285;-72
2021/04/02 09:22:01;;;;;;;9.13;3.17;;;;;;;8.78;54.80;98963.11;2153326;81;21279;-72
2021/04/02 09:25:03;;;;;;;8.58;3.25;;;;;;;8.85;55.05;98973.63;2118955;82;21316;-72
2021/04/02 09:28:05;;;;;;;7.95;3.10;;;;;;;9.05;55.89;98966.50;2165015;81;21323;-71
2021/04/02 09:31:07;;;;;;;12.30;3.35;;;;;;;9.11;53.70;98957.87;2107307;83;21303;-72
2021/04/02 09:34:09;;;;;;;9.03;3.00;;;;;;;9.38;54.87;98956.47;2116064;83;21295;-72
2021/04/02 09:37:11;;;;;;;9.85;3.33;;;;;;;9.53;50.87;98962.19;2212420;79;21614;-72
2021/04/02 09:40:13;;;;;;;9.08;3.20;;;;;;;9.52;51.01;98950.02;2194261;80;21304;-72
2021/04/02 09:43:15;;;;;;;11.60;3.52;;;;;;;9.60;53.65;98943.91;2186796;80;21747;-72
2021/04/02 09:46:17;;;;;;;7.75;3.20;;;;;;;9.84;52.29;98937.77;2166059;80;21727;-72
2021/04/02 09:49:19;;;;;;;9.15;3.50;;;;;;;10.14;51.80;98950.52;2211223;79;21230;-72
2021/04/02 09:52:21;;;;;;;;;;;;;;;10.26;50.77;98942.41;2191554;80;21721;-72
2021/04/02 09:55:23;;;;;;;12.43;3.33;;;;;;;10.12;49.27;98945.37;2206649;80;20258;-72
2021/04/02 09:58:25;;;;;;;10.40;3.83;;;;;;;10.10;50.39;98939.39;2195758;80;21292;-72
2021/04/02 10:01:27;;;;;;;10.10;3.15;;;;;;;10.21;50.39;98940.92;2202463;80;21285;-72
2021/04/02 10:04:29;;;;;;;8.15;3.17;;;;;;;10.27;49.71;98938.87;2213358;80;21140;-72
2021/04/02 10:07:32;;;;;;;10.28;3.35;;;;;;;10.46;50.34;98927.73;2209179;80;21308;-72
2021/04/02 10:10:34;;;;;;;11.30;3.60;;;;;;;10.74;51.09;98925.59;2200840;80;21808;-72
2021/04/02 10:13:36;;;;;;;;;;;;;;;10.92;50.06;98922.82;2188289;80;21125;-72
2021/04/02 10:16:38;;;;;;;8.97;3.30;;;;;;;10.89;48.02;98936.13;2171323;81;20492;-72
2021/04/02 10:19:40;;;;;;;10.63;3.33;;;;;;;10.73;47.45;98932.25;2145296;81;22075;-72
2021/04/02 10:22:42;;;;;;;10.32;3.20;;;;;;;10.78;47.98;98930.20;2139439;81;21130;-72
2021/04/02 10:25:44;;;;;;;9.25;3.45;;;;;;;10.88;50.15;98930.02;2143973;82;21304;-72
2021/04/02 10:28:46;;;;;;;8.55;3.20;;;;;;;11.27;50.00;98920.63;2127853;82;21161;-71
2021/04/02 10:31:48;;;;;;;9.90;3.40;;;;;;;11.53;46.11;98918.14;2137478;81;21283;-72
2021/04/02 10:34:53;;;;;;;9.95;3.50;;;;;;;11.70;46.21;98921.02;2147376;81;21145;-72
2021/04/02 10:37:55;;;;;;;9.13;3.00;;;;;;;11.54;46.48;98926.89;2139685;81;21798;-72
2021/04/02 10:40:57;;;;;;;9.75;2.77;;;;;;;11.49;45.24;98924.53;2147166;82;21277;-72
2021/04/02 10:43:59;;;;;;;8.33;2.58;;;;;;;11.42;44.64;98925.41;2145471;82;21740;-72
2021/04/02 10:47:02;;;;;;;;;;;;;;;11.38;42.97;98919.14;2158085;82;21756;-72
2021/04/02 10:50:03;;;;;;;10.18;3.22;;;;;;;11.25;44.50;98909.39;2140727;81;20158;-71
2021/04/02 10:53:05;;;;;;;10.00;2.98;;;;;;;11.70;47.05;98901.31;2130673;82;21299;-72
2021/04/02 10:56:07;;;;;;;8.30;2.58;;;;;;;12.25;42.81;98903.44;2148937;82;21295;-72
2021/04/02 10:59:09;;;;;;;7.37;2.75;;;;;;;12.38;44.09;98913.98;2142722;82;21185;-71
2021/04/02 11:02:11;;;;;;;7.53;2.85;;;;;;;12.19;45.65;98906.97;2135988;82;21720;-71
2021/04/02 11:05:14;;;;;;;6.87;2.60;;;;;;;11.61;45.57;98905.86;2148972;81;21311;-71
2021/04/02 11:08:16;;;;;;;8.68;2.80;;;;;;;11.54;42.95;98902.77;2134272;82;21292;-71
2021/04/02 11:11:18;;;;;;;8.63;3.08;;;;;;;11.70;43.35;98897.84;2152117;82;21823;-71
2021/04/02 11:14:21;;;;;;;7.83;2.77;;;;;;;12.10;45.24;98888.70;2133388;82;21284;-72
2021/04/02 11:17:23;;;;;;;8.60;3.00;;;;;;;12.08;41.17;98890.13;2139038;81;21280;-71
2021/04/02 11:20:28;;;;;;;8.48;2.70;;;;;;;11.78;43.79;98902.14;2160864;82;21739;-71
2021/04/02 11:23:29;;;;;;;6.85;2.77;;;;;;;11.66;43.08;98893.73;2151752;82;21347;-71
2021/04/02 11:26:31;;;;;;;8.53;3.00;;;;;;;11.83;46.74;98893.47;2135541;82;21305;-72
2021/04/02 11:29:33;;;;;;;8.88;2.70;;;;;;;12.12;44.23;98877.60;2123747;82;21307;-71
2021/04/02 11:32:36;;;;;;;8.18;2.70;;;;;;;12.74;43.45;98880.88;2136304;81;21264;-71
2021/04/02 11:35:38;;;;;;;7.30;2.80;;;;;;;12.68;41.77;98881.77;2149484;81;21751;-72
2021/04/02 11:38:40;;;;;;;8.85;3.00;;;;;;;12.42;40.70;98878.64;2156136;80;21304;-71
2021/04/02 11:41:42;;;;;;;7.62;2.60;;;;;;;12.52;42.41;98868.83;2132420;83;21740;-72
2021/04/02 11:44:44;;;;;;;8.78;2.77;;;;;;;12.74;43.02;98861.14;2124279;83;21308;-72
2021/04/02 11:47:46;;;;;;;7.17;2.90;;;;;;;12.70;41.40;98856.17;2127128;83;21292;-72
2021/04/02 11:50:48;;;;;;;10.15;3.00;;;;;;;12.60;41.48;98866.52;2107017;83;21142;-72
2021/04/02 11:53:50;;;;;;;9.43;3.25;;;;;;;12.74;41.47;98858.52;2122039;83;21299;-72
2021/04/02 11:56:52;;;;;;;9.40;3.00;;;;;;;12.90;39.85;98869.27;2151899;81;21376;-72
2021/04/02 11:59:54;;;;;;;10.25;3.35;;;;;;;12.84;41.56;98848.16;2144822;81;21744;-72
2021/04/02 12:02:56;;;;;;;;;;;;;;;12.81;41.55;98835.22;2155244;81;21629;-71
2021/04/02 12:05:58;;;;;;;6.67;2.20;;;;;;;13.21;41.99;98844.25;2160832;80;20504;-71
2021/04/02 12:09:00;;;;;;;8.80;3.20;;;;;;;12.94;39.05;98835.20;2173160;81;21288;-72
2021/04/02 12:12:03;;;;;;;8.70;2.92;;;;;;;12.80;40.15;98843.59;2203272;80;21321;-72
2021/04/02 12:15:05;;;;;;;11.25;3.00;;;;;;;12.94;39.98;98832.11;2162700;80;21287;-72
2021/04/02 12:18:07;;;;;;;8.65;2.60;;;;;;;13.28;41.11;98823.58;2199265;80;21301;-72
2021/04/02 12:21:09;;;;;;;6.15;2.72;;;;;;;13.26;36.96;98826.33;2213467;80;21284;-72
2021/04/02 12:24:11;;;;;;;8.85;2.92;;;;;;;13.11;36.52;98817.72;2208955;80;21230;-71
2021/04/02 12:27:13;;;;;;;11.05;3.10;;;;;;;13.20;38.12;98821.97;2204089;80;21352;-72
2021/04/02 12:30:15;;;;;;;11.57;3.00;;;;;;;13.17;36.73;98815.98;2196458;80;21284;-72
2021/04/02 12:33:17;;;;;;;12.73;3.67;;;;;;;13.41;38.78;98805.95;2205741;80;21281;-72
2021/04/02 12:36:20;;;;;;;12.98;3.65;;;;;;;13.72;37.27;98798.44;2209519;79;21358;-72
2021/04/02 12:39:22;;;;;;;11.68;3.55;;;;;;;13.81;35.43;98800.38;2179079;80;21603;-72
2021/04/02 12:42:24;;;;;;;11.65;3.70;;;;;;;13.45;37.76;98794.25;2206007;80;21642;-72
2021/04/02 12:45:27;;;;;;;;;;;;;;;13.68;38.02;98792.55;2199601;80;21289;-72
2021/04/02 12:48:29;;;;;;;12.07;3.65;;;;;;;13.22;35.24;98782.73;2206224;80;20246;-72
2021/04/02 12:51:31;;;;;;;14.65;4.78;;;;;;;13.02;37.41;98771.48;2187380;80;21286;-72
2021/04/02 12:54:33;;;;;;;16.48;4.92;;;;;;;13.13;37.31;98785.55;2195940;80;21289;-72
2021/04/02 12:57:35;;;;;;;12.82;4.50;;;;;;;13.14;37.20;98770.09;2195842;79;21304;-72
2021/04/02 13:00:37;;;;;;;12.95;4.15;;;;;;;13.28;38.12;98770.91;2207395;80;21298;-72
2021/04/02 13:03:40;;;;;;;;;;;;;;;13.18;36.37;98770.73;2210514;80;21815;-71
2021/04/02 13:06:42;;;;;;;;;;;;;;;13.03;35.87;98763.48;2193390;80;20165;-72
2021/04/02 13:09:44;;;;;;;19.57;6.50;;;;;;;12.95;37.06;98769.27;2210660;80;20255;-72
2021/04/02 13:12:46;;;;;;;21.30;6.83;;;;;;;12.94;36.98;98766.30;2198340;80;21281;-72
2021/04/02 13:15:49;;;;;;;16.77;5.20;;;;;;;13.26;36.82;98749.09;2160803;80;21283;-72
2021/04/02 13:18:51;;;;;;;19.05;5.97;;;;;;;13.07;37.15;98761.45;2166830;80;21291;-72
2021/04/02 13:21:53;;;;;;;16.35;5.10;;;;;;;12.99;36.31;98764.64;2202051;80;21119;-72
2021/04/02 13:24:55;;;;;;;13.40;4.30;;;;;;;13.11;37.35;98758.47;2202373;79;21313;-72
2021/04/02 13:27:57;;;;;;;14.13;4.55;;;;;;;12.96;35.81;98748.59;2181253;80;21300;-72
2021/04/02 13:30:59;;;;;;;17.17;4.97;;;;;;;12.97;35.82;98745.47;2192905;79;21236;-72
2021/04/02 13:34:01;;;;;;;18.48;5.72;;;;;;;13.06;35.33;98738.69;2203487;79;21332;-72
2021/04/02 13:37:03;;;;;;;17.07;5.30;;;;;;;13.35;36.18;98730.02;2209339;80;21287;-72
2021/04/02 13:40:05;;;;;;;12.78;4.08;;;;;;;13.60;36.94;98733.45;2187879;80;21167;-73
2021/04/02 13:43:07;;;;;;;11.43;3.95;;;;;;;13.55;34.99;98738.22;2203850;80;21327;-72
2021/04/02 13:46:09;;;;;;;14.30;3.92;;;;;;;13.33;36.75;98730.56;2195151;80;21201;-72
2021/04/02 13:49:11;;;;;;;13.32;4.17;;;;;;;13.30;33.79;98728.16;2193245;80;21118;-72
2021/04/02 13:52:13;;;;;;;16.52;4.45;;;;;;;13.50;35.52;98734.16;2214419;80;21673;-72
2021/04/02 13:55:15;;;;;;;;;;;;;;;13.67;34.73;98726.28;2169944;80;21150;-72
2021/04/02 13:58:17;;;;;;;12.73;4.23;;;;;;;13.64;32.99;98730.95;2211979;80;20262;-72
2021/04/02 14:01:19;;;;;;;10.72;3.83;;;;;;;13.42;35.73;98731.70;2204402;80;21359;-72
2021/04/02 14:04:22;;;;;;;;;;;;;;;13.42;34.93;98725.98;2210129;80;21310;-72
2021/04/02 14:07:24;;;;;;;11.05;3.75;;;;;;;13.50;33.82;98724.08;2195582;80;20244;-72
2021/04/02 14:10:26;;;;;;;11.40;3.95;;;;;;;13.69;34.91;98721.75;2167078;80;21281;-72
2021/04/02 14:13:28;;;;;;;11.73;3.75;;;;;;;13.57;33.88;98721.34;2202159;80;21286;-72
2021/04/02 14:16:30;;;;;;;13.15;3.90;;;;;;;13.56;34.03;98710.92;2176383;80;21293;-72